Rapids City, IL (61278)

12:49 AM CST on February 09, 2016 (GMT -0600)
Princeton | | Change Station
CLOSE
Current Station
Personal Weather Station
Location: Princeton, IA
Elevation: 722 ft
Nearby Weather Stations
Active Advisory: Special Statement

Elev 722 ft 41.67 °N, 90.35 °W | Updated 2 seconds ago

Light Snow
Light Snow
15.3 °F
Feels Like 3 °F
N
9.9
Wind Variable Wind from West
Gusts 9.9 mph

Today
High -- | Low -- °F
--% Chance of Precip.
Yesterday
High -- | Low -- °F
Precip. -- in
Pressure 29.86 in
Visibility 2.5 miles
Clouds Mostly Cloudy 2000 ft
Overcast 3000 ft
Windchill 3 °F
Dew Point 14 °F
Humidity 96%
Rainfall 0.00 in
Snow Depth Not available.
7:04 AM 5:26 PM
New Moon, 1% visible
SPECI KMLI 090626Z AUTO 30013G22KT 2 1/2SM -SN BKN020 OVC030 M08/M12 A2986 RMK AO2 P0000 T10831117
Pressure 29.86 in
Visibility 2.5 miles
Clouds Mostly Cloudy 2000 ft
Overcast 3000 ft
Windchill 3 °F
Dew Point 14 °F
Humidity 96%
Rainfall 0.00 in
Snow Depth Not available.
7:04 AM 5:26 PM
New Moon, 1% visible
SPECI KMLI 090626Z AUTO 30013G22KT 2 1/2SM -SN BKN020 OVC030 M08/M12 A2986 RMK AO2 P0000 T10831117

10-Day Weather Forecast

Almanac

Astronomy

Feb. 09, 2016 Rise Set
Actual Time
Civil Twilight
Nautical Twilight
Astronomical Twilight
Moon
Length of Visible Light
Length of Day
Tomorrow will be .
, % of the Moon is Illuminated

Today's Extremes

State Highs State Lows

Community

WunderPhotos

Upload Photos

1,891,571 photos uploaded!

WunderBlog® & News

Nearby

Air Quality

  Air Quality AQ Index Pollutant
Not available.

Snow Depth

Station Depth Elevation

Earthquake Activity

City Distance Mag. Time & Date
Minimum magnitude displayed is 2.5.

Coastal Water Temperatures

Place Temperature

Stations

Nearby Weather Stations

Station Location Temp. Windchill Dew Point Humidity Wind Precip. Elev Updated Type
                   

Watches & Warnings

Special Statement
Issued: 11:08 PM CST Feb. 8, 2016 – National Weather Service

... Light snow and flurries through 2 am...

Areas of flurries and light snow will continue through 2 am before
diminishing. Any additional snow totals will be light with a dusting
to possibly a tenth or two of fresh powdery snow. Area roads remain
in mostly good condition from Iowa Department of Transportation with
patchy snow possible on some roadways.

Motorist should drive defensively if they observed snow and ice on
area roadways.


Nichols